weather.gov     
National Weather Service

Terminal Aerodrome Forecast
NWS Homepage
This page is being discontinued on March 12, 2014.
The same data is available at this site. Please update your bookmarks.
Thank you, and we apologize for the inconvenience.
Please send an email to SR-SRH.Webmaster@noaa.gov with any concerns.


Current Version
Previous Version:    01  02  03  04  05  06  07  08  09  10  11  12  13  14  15  16  17  18  19  20  21  22  23  24  25  26  27  28  29  30  
   31  
[Printable]
827
FTUS43 KGRB 290500
TAFMTW
TAF
KMTW 290524Z 2906/3006 14006KT P6SM VCSH SCT040 OVC070
     FM290800 12004KT 5SM -SHRA BKN030 OVC040
     FM291200 17008KT 4SM -SHRA BR BKN025 OVC035
      TEMPO 2912/2916 3SM SHRA BR OVC020
     FM292100 17012KT 5SM -SHRA BR SCT020 OVC035
     FM300200 19010KT 3SM SHRA BR OVC015=


U.S. Dept. of Commerce
NOAA National Weather Service
1325 East West Highway
Silver Spring, MD 20910
E-mail: w-nws.webmaster@noaa.gov
Page last modified: May 16, 2007
NATIONAL WEATHER SERVICE: for Safety, for Work, for Fun - FOR LIFE